Ewing, Kentucky
Current Conditions -  °F | °C
As of 7:35 AM on Sunday 21 Dec 2014 (Local Time) from KFGX Reporting Station
Overcast Overcast  
Wind Chill: 29°   Ceiling: 1800
Heat Index: 29°   Visibility: 7mi
Dew Point: 27°   Wind: 3mph
Humidity: 90%   Direction: 50°NE
Pressure: 30.32"   Gusts: NA
Location:  38.43°N, 83.86°W
Report Text: KFGX 211235Z AUTO 05003KT 7SM OVC018 M01/M03 A3032 RMK AO2 T10151030
Loading
Personal Weather Stations






























Interactive Weather Map New forecast layout! Learn more

10-Day Weather Forecast

Advertisements
Track Severe Weather on mobile